Погода Лапковона неделю

Тверская область, Россия

23 - 29 мая
  • 23мая
    Сегодня
    +8°
    +21°
    Ясно и безоблачно
    ВремяПогодаТемператураВлажностьДавлениеВетер, м/сВероятность осадков
    00:00Ясно и безоблачно+13°C51 %750 мм2.0 м/с2 %
    03:00Ясно и безоблачно+10°C55 %750 мм2.0 м/с2 %
    06:00Ясно и безоблачно+10°C58 %752 мм1.9 м/с2 %
    09:00Ясно и безоблачно+15°C49 %753 мм2.7 м/с2 %
    12:00Ясно и безоблачно+20°C35 %753 мм3.4 м/с2 %
    15:00Ясно и безоблачно+21°C34 %753 мм3.8 м/с2 %
    18:00Ясно и безоблачно+21°C35 %753 мм3.0 м/с2 %
    21:00Ясно и безоблачно+16°C51 %753 мм2.1 м/с2 %
  • 24мая
    Пятница
    +7°
    +21°
    Ясно и безоблачно
    ВремяПогодаТемператураВлажностьДавлениеВетер, м/сВероятность осадков
    00:00Ясно и безоблачно+12°C55 %755 мм1.8 м/с2 %
    03:00Ясно и безоблачно+10°C61 %755 мм1.8 м/с2 %
    06:00Ясно и безоблачно+9°C62 %756 мм1.7 м/с2 %
    09:00Ясно и безоблачно+15°C42 %757 мм2.5 м/с2 %
    12:00Ясно и безоблачно+18°C30 %756 мм3.2 м/с2 %
    15:00Ясно и безоблачно+19°C26 %756 мм3.7 м/с2 %
    18:00Ясно и безоблачно+20°C29 %755 мм2.6 м/с2 %
    21:00Ясно и безоблачно+15°C48 %755 мм2.0 м/с2 %
  • 25мая
    Суббота
    +10°
    +23°
    Ясно и безоблачно
    ВремяПогодаТемператураВлажностьДавлениеВетер, м/сВероятность осадков
    00:00Ясно и безоблачно+11°C57 %755 мм1.7 м/с2 %
    03:00Ясно и безоблачно+9°C65 %755 мм1.7 м/с2 %
    06:00Ясно и безоблачно+9°C68 %755 мм1.5 м/с2 %
    09:00Ясно и безоблачно+16°C53 %754 мм1.9 м/с2 %
    12:00Ясно и безоблачно+20°C40 %754 мм2.6 м/с2 %
    15:00Ясно и безоблачно+22°C35 %753 мм3.2 м/с2 %
    18:00Ясно и безоблачно+23°C35 %752 мм2.3 м/с2 %
    21:00Ясно и безоблачно+18°C58 %751 мм1.6 м/с2 %
  • 26мая
    Воскресенье
    +11°
    +25°
    Небольшая облачность
    ВремяПогодаТемператураВлажностьДавлениеВетер, м/сВероятность осадков
    00:00Ясно и безоблачно+14°C67 %751 мм1.4 м/с2 %
    03:00Ясно и безоблачно+11°C71 %751 мм1.3 м/с2 %
    06:00Ясно и безоблачно+11°C74 %751 мм1.0 м/с2 %
    09:00Ясно и безоблачно+18°C55 %751 мм1.5 м/с2 %
    12:00Ясно и безоблачно+22°C38 %751 мм1.8 м/с6 %
    15:00Небольшая облачность+24°C34 %750 мм2.4 м/с20 %
    18:00Небольшая облачность+25°C35 %750 мм1.6 м/с18 %
    21:00Практически безоблачно+20°C58 %750 мм1.3 м/с10 %
Мы используем cookies
Соглашаюсь